Pagrindinis puslapis
METAR-TAF:

METAR-TAF

Oro uostai :

Kittilä, Suomija

platuma: 67-42N, ilguma: 024-51E, Aukštis: 196 m

Dabartinis oras

Ataskaita buvo paskelbta 29 minutes, ne 07:20 UTC
Vėjas 5 kt iš Šiaurės/Šiaurės Rytų
Temperatūra -10°C
Drėgmė 85%
Slėgis 1020 hPa
Matomumas 10 km arba daugiau
sniegas

METAR: EFKT 100720Z 03005KT 9999 -SN NSC M10/M12 Q1020

Laikas: 09:49 (07:49 UTC)

Prognozė

Ataskaita buvo paskelbta 2 valandos ir 15 minutes, ne 05:34 UTC
Prognozė galioja nuo 10 metu 06 UTC su 10 metu 15 UTC
Vėjas 8 kt iš Šiaurės Rytų
Matomumas 10 km arba daugiau
Su prošvaistėmis ne aukštis 2500 ft
sniegas
Laikinai
nuo 10 metu 06 UTC su 10 metu 15 UTC
Matomumas: 7000 m

TAF: EFKT 100534Z 1006/1015 04008KT 9999 -SN BKN025 TEMPO 1006/1015 7000

Orai ataskaitas ir orų prognozės (METAR, TAF).

turimą stotys yra geltonos ir raudonos taškus žemėlapyje.

Perkelti pele per norėdami pamatyti stoties vardą.

Tada spustelėkite, norėdami matyti oro stebėjimo ir prognozės.

Norėdami pakeisti žemėlapį: spustelėkite ant žalios mygtukų su juodo kryžiaus žemyn,; žalią mygtuką su brūkšneliu, jei norite nutolinti; arba žalių rodyklių gretimoms žemėlapius.


METAR-TAF: